sensor_id;sensor_type;location;lat;lon;timestamp;P1;durP1;ratioP1;P2;durP2;ratioP2
12048;SDS011;6085;49.452;8.502;2022-09-17T00:02:38;0.90;;;0.80;;
12048;SDS011;6085;49.452;8.502;2022-09-17T00:06:42;2.03;;;0.80;;
12048;SDS011;6085;49.452;8.502;2022-09-17T00:10:44;1.08;;;0.98;;
12048;SDS011;6085;49.452;8.502;2022-09-17T00:14:47;3.38;;;0.93;;
12048;SDS011;6085;49.452;8.502;2022-09-17T00:18:48;3.63;;;1.00;;
12048;SDS011;6085;49.452;8.502;2022-09-17T00:22:50;1.35;;;0.90;;
12048;SDS011;6085;49.452;8.502;2022-09-17T00:26:52;1.00;;;0.90;;
12048;SDS011;6085;49.452;8.502;2022-09-17T00:30:56;1.15;;;0.90;;
12048;SDS011;6085;49.452;8.502;2022-09-17T00:34:57;0.80;;;0.80;;
12048;SDS011;6085;49.452;8.502;2022-09-17T00:38:59;1.40;;;0.70;;
12048;SDS011;6085;49.452;8.502;2022-09-17T00:43:01;1.23;;;0.90;;
12048;SDS011;6085;49.452;8.502;2022-09-17T00:47:04;1.05;;;0.65;;
12048;SDS011;6085;49.452;8.502;2022-09-17T00:51:13;3.28;;;1.00;;
12048;SDS011;6085;49.452;8.502;2022-09-17T00:55:19;2.20;;;0.93;;
12048;SDS011;6085;49.452;8.502;2022-09-17T00:59:24;1.88;;;0.90;;
12048;SDS011;6085;49.452;8.502;2022-09-17T01:03:28;2.25;;;1.02;;
12048;SDS011;6085;49.452;8.502;2022-09-17T01:07:37;2.10;;;1.00;;
12048;SDS011;6085;49.452;8.502;2022-09-17T01:16:27;0.73;;;0.55;;
12048;SDS011;6085;49.452;8.502;2022-09-17T01:25:30;1.42;;;0.85;;
12048;SDS011;6085;49.452;8.502;2022-09-17T01:29:49;0.80;;;0.80;;
12048;SDS011;6085;49.452;8.502;2022-09-17T01:34:16;1.63;;;1.00;;
12048;SDS011;6085;49.452;8.502;2022-09-17T01:38:24;1.55;;;1.15;;
12048;SDS011;6085;49.452;8.502;2022-09-17T01:42:32;2.00;;;0.90;;
12048;SDS011;6085;49.452;8.502;2022-09-17T01:46:39;1.65;;;1.00;;
12048;SDS011;6085;49.452;8.502;2022-09-17T01:50:47;1.25;;;0.80;;
12048;SDS011;6085;49.452;8.502;2022-09-17T01:54:54;3.95;;;1.10;;
12048;SDS011;6085;49.452;8.502;2022-09-17T01:59:04;2.45;;;1.20;;
12048;SDS011;6085;49.452;8.502;2022-09-17T02:03:13;4.75;;;1.27;;
12048;SDS011;6085;49.452;8.502;2022-09-17T02:07:20;1.75;;;1.50;;
12048;SDS011;6085;49.452;8.502;2022-09-17T02:11:24;1.70;;;1.10;;
12048;SDS011;6085;49.452;8.502;2022-09-17T02:15:29;2.40;;;1.30;;
12048;SDS011;6085;49.452;8.502;2022-09-17T02:19:34;1.13;;;1.00;;
12048;SDS011;6085;49.452;8.502;2022-09-17T02:23:50;1.58;;;1.13;;
12048;SDS011;6085;49.452;8.502;2022-09-17T02:28:00;1.02;;;1.00;;
12048;SDS011;6085;49.452;8.502;2022-09-17T02:32:05;3.95;;;1.20;;
12048;SDS011;6085;49.452;8.502;2022-09-17T02:36:07;4.15;;;1.35;;
12048;SDS011;6085;49.452;8.502;2022-09-17T02:40:11;3.40;;;1.33;;
12048;SDS011;6085;49.452;8.502;2022-09-17T02:44:19;1.90;;;1.35;;
12048;SDS011;6085;49.452;8.502;2022-09-17T02:48:31;3.03;;;1.40;;
12048;SDS011;6085;49.452;8.502;2022-09-17T02:52:49;2.83;;;1.60;;
12048;SDS011;6085;49.452;8.502;2022-09-17T02:57:04;1.60;;;1.50;;
12048;SDS011;6085;49.452;8.502;2022-09-17T03:01:16;1.98;;;1.60;;
12048;SDS011;6085;49.452;8.502;2022-09-17T03:05:24;2.03;;;1.52;;
12048;SDS011;6085;49.452;8.502;2022-09-17T03:09:27;4.75;;;1.88;;
12048;SDS011;6085;49.452;8.502;2022-09-17T03:13:30;3.58;;;1.90;;
12048;SDS011;6085;49.452;8.502;2022-09-17T03:17:32;2.53;;;1.73;;
12048;SDS011;6085;49.452;8.502;2022-09-17T03:21:34;3.15;;;1.80;;
12048;SDS011;6085;49.452;8.502;2022-09-17T03:25:36;3.08;;;1.60;;
12048;SDS011;6085;49.452;8.502;2022-09-17T03:29:39;2.47;;;1.65;;
12048;SDS011;6085;49.452;8.502;2022-09-17T03:33:41;2.15;;;1.20;;
12048;SDS011;6085;49.452;8.502;2022-09-17T03:37:43;1.58;;;1.30;;
12048;SDS011;6085;49.452;8.502;2022-09-17T03:41:46;3.65;;;1.30;;
12048;SDS011;6085;49.452;8.502;2022-09-17T03:45:49;1.40;;;1.10;;
12048;SDS011;6085;49.452;8.502;2022-09-17T03:49:51;2.65;;;1.58;;
12048;SDS011;6085;49.452;8.502;2022-09-17T03:53:53;4.78;;;1.50;;
12048;SDS011;6085;49.452;8.502;2022-09-17T03:57:55;2.28;;;1.50;;
12048;SDS011;6085;49.452;8.502;2022-09-17T04:01:58;3.50;;;1.38;;
12048;SDS011;6085;49.452;8.502;2022-09-17T04:05:59;3.50;;;2.00;;
12048;SDS011;6085;49.452;8.502;2022-09-17T04:10:01;1.80;;;1.30;;
12048;SDS011;6085;49.452;8.502;2022-09-17T04:14:04;2.97;;;1.05;;
12048;SDS011;6085;49.452;8.502;2022-09-17T04:18:07;4.13;;;1.33;;
12048;SDS011;6085;49.452;8.502;2022-09-17T04:22:10;3.10;;;1.10;;
12048;SDS011;6085;49.452;8.502;2022-09-17T04:26:11;1.65;;;1.10;;
12048;SDS011;6085;49.452;8.502;2022-09-17T04:30:14;2.58;;;1.27;;
12048;SDS011;6085;49.452;8.502;2022-09-17T04:34:17;1.73;;;1.20;;
12048;SDS011;6085;49.452;8.502;2022-09-17T04:38:19;3.03;;;1.33;;
12048;SDS011;6085;49.452;8.502;2022-09-17T04:42:21;2.60;;;1.05;;
12048;SDS011;6085;49.452;8.502;2022-09-17T04:46:23;3.35;;;1.30;;
12048;SDS011;6085;49.452;8.502;2022-09-17T04:50:26;4.22;;;1.27;;
12048;SDS011;6085;49.452;8.502;2022-09-17T04:54:28;1.52;;;1.13;;
12048;SDS011;6085;49.452;8.502;2022-09-17T04:58:30;2.45;;;1.45;;
12048;SDS011;6085;49.452;8.502;2022-09-17T05:02:32;1.85;;;1.45;;
12048;SDS011;6085;49.452;8.502;2022-09-17T05:06:35;3.17;;;1.38;;
12048;SDS011;6085;49.452;8.502;2022-09-17T05:10:37;2.50;;;1.17;;
12048;SDS011;6085;49.452;8.502;2022-09-17T05:14:38;3.65;;;1.30;;
12048;SDS011;6085;49.452;8.502;2022-09-17T05:18:40;2.38;;;1.15;;
12048;SDS011;6085;49.452;8.502;2022-09-17T05:22:44;2.47;;;1.45;;
12048;SDS011;6085;49.452;8.502;2022-09-17T05:26:47;1.92;;;1.10;;
12048;SDS011;6085;49.452;8.502;2022-09-17T05:30:48;1.50;;;1.20;;
12048;SDS011;6085;49.452;8.502;2022-09-17T05:34:50;2.58;;;1.38;;
12048;SDS011;6085;49.452;8.502;2022-09-17T05:38:54;2.25;;;1.13;;
12048;SDS011;6085;49.452;8.502;2022-09-17T05:42:58;2.05;;;1.58;;
12048;SDS011;6085;49.452;8.502;2022-09-17T05:47:01;2.70;;;1.23;;
12048;SDS011;6085;49.452;8.502;2022-09-17T05:51:02;5.32;;;1.50;;
12048;SDS011;6085;49.452;8.502;2022-09-17T05:55:06;3.65;;;1.30;;
12048;SDS011;6085;49.452;8.502;2022-09-17T05:59:08;2.30;;;1.17;;
12048;SDS011;6085;49.452;8.502;2022-09-17T06:03:11;4.18;;;1.33;;
12048;SDS011;6085;49.452;8.502;2022-09-17T06:07:14;3.58;;;1.40;;
12048;SDS011;6085;49.452;8.502;2022-09-17T06:11:17;2.65;;;1.40;;
12048;SDS011;6085;49.452;8.502;2022-09-17T06:15:19;2.78;;;1.00;;
12048;SDS011;6085;49.452;8.502;2022-09-17T06:19:21;1.80;;;1.30;;
12048;SDS011;6085;49.452;8.502;2022-09-17T06:23:24;1.70;;;1.27;;
12048;SDS011;6085;49.452;8.502;2022-09-17T06:27:30;1.90;;;1.40;;
12048;SDS011;6085;49.452;8.502;2022-09-17T06:31:32;2.22;;;1.15;;
12048;SDS011;6085;49.452;8.502;2022-09-17T06:35:34;2.53;;;1.30;;
12048;SDS011;6085;49.452;8.502;2022-09-17T06:39:36;5.22;;;1.50;;
12048;SDS011;6085;49.452;8.502;2022-09-17T06:43:40;3.50;;;1.35;;
12048;SDS011;6085;49.452;8.502;2022-09-17T06:47:42;5.85;;;1.42;;
12048;SDS011;6085;49.452;8.502;2022-09-17T06:51:44;2.25;;;1.40;;
12048;SDS011;6085;49.452;8.502;2022-09-17T06:55:46;3.53;;;1.60;;
12048;SDS011;6085;49.452;8.502;2022-09-17T06:59:49;2.47;;;1.10;;
12048;SDS011;6085;49.452;8.502;2022-09-17T07:03:51;3.65;;;1.50;;
12048;SDS011;6085;49.452;8.502;2022-09-17T07:07:53;4.53;;;1.55;;
12048;SDS011;6085;49.452;8.502;2022-09-17T07:11:56;5.15;;;1.40;;
12048;SDS011;6085;49.452;8.502;2022-09-17T07:16:02;3.55;;;1.52;;
12048;SDS011;6085;49.452;8.502;2022-09-17T07:20:05;2.95;;;1.45;;
12048;SDS011;6085;49.452;8.502;2022-09-17T07:24:08;5.60;;;1.50;;
12048;SDS011;6085;49.452;8.502;2022-09-17T07:28:10;4.85;;;1.48;;
12048;SDS011;6085;49.452;8.502;2022-09-17T07:32:13;3.28;;;1.27;;
12048;SDS011;6085;49.452;8.502;2022-09-17T07:36:15;3.83;;;1.50;;
12048;SDS011;6085;49.452;8.502;2022-09-17T07:40:17;2.85;;;1.40;;
12048;SDS011;6085;49.452;8.502;2022-09-17T07:44:19;3.78;;;1.50;;
12048;SDS011;6085;49.452;8.502;2022-09-17T07:48:23;2.25;;;1.00;;
12048;SDS011;6085;49.452;8.502;2022-09-17T07:52:25;4.85;;;1.30;;
12048;SDS011;6085;49.452;8.502;2022-09-17T07:56:27;4.70;;;1.20;;
12048;SDS011;6085;49.452;8.502;2022-09-17T08:00:29;4.60;;;1.23;;
12048;SDS011;6085;49.452;8.502;2022-09-17T08:04:32;2.97;;;1.27;;
12048;SDS011;6085;49.452;8.502;2022-09-17T08:08:34;3.53;;;1.10;;
12048;SDS011;6085;49.452;8.502;2022-09-17T08:12:37;3.75;;;1.40;;
12048;SDS011;6085;49.452;8.502;2022-09-17T08:16:39;2.85;;;1.10;;
12048;SDS011;6085;49.452;8.502;2022-09-17T08:20:42;2.13;;;1.10;;
12048;SDS011;6085;49.452;8.502;2022-09-17T08:24:44;4.32;;;1.17;;
12048;SDS011;6085;49.452;8.502;2022-09-17T08:28:51;2.15;;;1.08;;
12048;SDS011;6085;49.452;8.502;2022-09-17T08:32:55;4.10;;;1.35;;
12048;SDS011;6085;49.452;8.502;2022-09-17T08:36:58;6.15;;;1.63;;
12048;SDS011;6085;49.452;8.502;2022-09-17T08:41:03;4.60;;;1.42;;
12048;SDS011;6085;49.452;8.502;2022-09-17T08:45:14;3.08;;;1.25;;
12048;SDS011;6085;49.452;8.502;2022-09-17T08:53:40;4.13;;;1.30;;
12048;SDS011;6085;49.452;8.502;2022-09-17T08:57:59;5.57;;;1.33;;
12048;SDS011;6085;49.452;8.502;2022-09-17T09:02:17;4.05;;;1.40;;
12048;SDS011;6085;49.452;8.502;2022-09-17T09:06:30;2.05;;;1.20;;
12048;SDS011;6085;49.452;8.502;2022-09-17T09:10:40;2.47;;;1.10;;
12048;SDS011;6085;49.452;8.502;2022-09-17T09:14:47;4.05;;;0.93;;
12048;SDS011;6085;49.452;8.502;2022-09-17T09:18:54;2.72;;;1.20;;
12048;SDS011;6085;49.452;8.502;2022-09-17T09:23:00;3.20;;;1.20;;
12048;SDS011;6085;49.452;8.502;2022-09-17T09:27:15;3.88;;;1.08;;
12048;SDS011;6085;49.452;8.502;2022-09-17T09:31:23;4.68;;;1.42;;
12048;SDS011;6085;49.452;8.502;2022-09-17T09:35:35;2.13;;;1.13;;
12048;SDS011;6085;49.452;8.502;2022-09-17T09:39:41;3.35;;;0.90;;
12048;SDS011;6085;49.452;8.502;2022-09-17T09:43:47;5.03;;;1.30;;
12048;SDS011;6085;49.452;8.502;2022-09-17T09:47:53;2.13;;;0.98;;
12048;SDS011;6085;49.452;8.502;2022-09-17T09:52:04;2.10;;;1.08;;
12048;SDS011;6085;49.452;8.502;2022-09-17T09:56:25;1.30;;;0.70;;
12048;SDS011;6085;49.452;8.502;2022-09-17T10:00:39;2.65;;;0.93;;
12048;SDS011;6085;49.452;8.502;2022-09-17T10:04:42;3.75;;;0.90;;
12048;SDS011;6085;49.452;8.502;2022-09-17T10:13:21;4.88;;;1.05;;
12048;SDS011;6085;49.452;8.502;2022-09-17T10:17:25;3.92;;;1.20;;
12048;SDS011;6085;49.452;8.502;2022-09-17T10:21:29;3.65;;;0.93;;
12048;SDS011;6085;49.452;8.502;2022-09-17T10:25:32;5.05;;;1.10;;
12048;SDS011;6085;49.452;8.502;2022-09-17T10:29:35;3.25;;;0.93;;
12048;SDS011;6085;49.452;8.502;2022-09-17T10:33:54;2.45;;;1.00;;
12048;SDS011;6085;49.452;8.502;2022-09-17T10:37:57;3.60;;;1.02;;
12048;SDS011;6085;49.452;8.502;2022-09-17T10:41:59;2.03;;;1.00;;
12048;SDS011;6085;49.452;8.502;2022-09-17T10:46:02;3.50;;;0.98;;
12048;SDS011;6085;49.452;8.502;2022-09-17T10:50:13;2.97;;;0.80;;
12048;SDS011;6085;49.452;8.502;2022-09-17T10:58:51;2.42;;;0.90;;
12048;SDS011;6085;49.452;8.502;2022-09-17T11:03:05;2.35;;;0.80;;
12048;SDS011;6085;49.452;8.502;2022-09-17T11:07:43;4.47;;;1.15;;
12048;SDS011;6085;49.452;8.502;2022-09-17T11:11:51;1.83;;;0.70;;
12048;SDS011;6085;49.452;8.502;2022-09-17T11:16:06;2.50;;;0.77;;
12048;SDS011;6085;49.452;8.502;2022-09-17T11:20:19;2.38;;;0.80;;
12048;SDS011;6085;49.452;8.502;2022-09-17T11:24:41;0.77;;;0.60;;
12048;SDS011;6085;49.452;8.502;2022-09-17T11:28:51;1.58;;;0.75;;
12048;SDS011;6085;49.452;8.502;2022-09-17T11:33:03;1.02;;;0.55;;
12048;SDS011;6085;49.452;8.502;2022-09-17T11:37:24;1.75;;;0.50;;
12048;SDS011;6085;49.452;8.502;2022-09-17T11:41:34;0.93;;;0.70;;
12048;SDS011;6085;49.452;8.502;2022-09-17T11:45:43;2.22;;;0.73;;
12048;SDS011;6085;49.452;8.502;2022-09-17T11:49:56;1.67;;;0.90;;
12048;SDS011;6085;49.452;8.502;2022-09-17T11:54:05;2.50;;;0.70;;
12048;SDS011;6085;49.452;8.502;2022-09-17T11:58:16;1.95;;;0.98;;
12048;SDS011;6085;49.452;8.502;2022-09-17T12:02:26;1.73;;;0.70;;
12048;SDS011;6085;49.452;8.502;2022-09-17T12:06:42;3.53;;;0.65;;
12048;SDS011;6085;49.452;8.502;2022-09-17T12:10:50;1.60;;;0.68;;
12048;SDS011;6085;49.452;8.502;2022-09-17T12:15:01;2.60;;;0.82;;
12048;SDS011;6085;49.452;8.502;2022-09-17T12:19:09;1.50;;;0.73;;
12048;SDS011;6085;49.452;8.502;2022-09-17T12:23:18;3.25;;;0.85;;
12048;SDS011;6085;49.452;8.502;2022-09-17T12:27:32;2.42;;;0.60;;
12048;SDS011;6085;49.452;8.502;2022-09-17T12:31:44;0.98;;;0.50;;
12048;SDS011;6085;49.452;8.502;2022-09-17T12:36:02;2.80;;;1.00;;
12048;SDS011;6085;49.452;8.502;2022-09-17T12:40:19;3.15;;;0.68;;
12048;SDS011;6085;49.452;8.502;2022-09-17T12:44:33;2.75;;;1.02;;
12048;SDS011;6085;49.452;8.502;2022-09-17T12:49:00;2.15;;;0.90;;
12048;SDS011;6085;49.452;8.502;2022-09-17T12:53:29;1.92;;;0.70;;
12048;SDS011;6085;49.452;8.502;2022-09-17T12:57:43;2.80;;;0.95;;
12048;SDS011;6085;49.452;8.502;2022-09-17T13:01:56;2.53;;;1.00;;
12048;SDS011;6085;49.452;8.502;2022-09-17T13:06:09;1.17;;;0.70;;
12048;SDS011;6085;49.452;8.502;2022-09-17T13:10:39;0.60;;;0.50;;
12048;SDS011;6085;49.452;8.502;2022-09-17T13:15:04;1.70;;;0.68;;
12048;SDS011;6085;49.452;8.502;2022-09-17T13:19:29;1.25;;;0.68;;
12048;SDS011;6085;49.452;8.502;2022-09-17T13:23:38;1.77;;;0.50;;
12048;SDS011;6085;49.452;8.502;2022-09-17T13:27:42;0.60;;;0.50;;
12048;SDS011;6085;49.452;8.502;2022-09-17T13:31:45;0.40;;;0.40;;
12048;SDS011;6085;49.452;8.502;2022-09-17T13:35:48;2.60;;;1.00;;
12048;SDS011;6085;49.452;8.502;2022-09-17T13:39:52;0.88;;;0.55;;
12048;SDS011;6085;49.452;8.502;2022-09-17T13:43:54;1.95;;;1.08;;
12048;SDS011;6085;49.452;8.502;2022-09-17T13:47:56;1.17;;;0.93;;
12048;SDS011;6085;49.452;8.502;2022-09-17T13:52:01;1.33;;;0.50;;
12048;SDS011;6085;49.452;8.502;2022-09-17T13:56:05;3.35;;;0.68;;
12048;SDS011;6085;49.452;8.502;2022-09-17T14:00:51;2.15;;;0.75;;
12048;SDS011;6085;49.452;8.502;2022-09-17T14:04:55;2.63;;;0.88;;
12048;SDS011;6085;49.452;8.502;2022-09-17T14:13:54;2.97;;;0.60;;
12048;SDS011;6085;49.452;8.502;2022-09-17T14:17:56;2.20;;;0.60;;
12048;SDS011;6085;49.452;8.502;2022-09-17T14:22:07;0.82;;;0.40;;
12048;SDS011;6085;49.452;8.502;2022-09-17T14:26:17;1.02;;;0.30;;
12048;SDS011;6085;49.452;8.502;2022-09-17T14:30:28;1.38;;;0.40;;
12048;SDS011;6085;49.452;8.502;2022-09-17T14:34:31;0.52;;;0.40;;
12048;SDS011;6085;49.452;8.502;2022-09-17T14:38:33;1.85;;;0.38;;
12048;SDS011;6085;49.452;8.502;2022-09-17T14:42:43;0.68;;;0.52;;
12048;SDS011;6085;49.452;8.502;2022-09-17T14:46:51;0.45;;;0.22;;
12048;SDS011;6085;49.452;8.502;2022-09-17T14:55:29;0.55;;;0.50;;
12048;SDS011;6085;49.452;8.502;2022-09-17T14:59:35;1.08;;;0.52;;
12048;SDS011;6085;49.452;8.502;2022-09-17T15:03:44;0.30;;;0.25;;
12048;SDS011;6085;49.452;8.502;2022-09-17T15:07:46;1.50;;;0.38;;
12048;SDS011;6085;49.452;8.502;2022-09-17T15:11:48;0.35;;;0.35;;
12048;SDS011;6085;49.452;8.502;2022-09-17T15:15:58;1.00;;;0.60;;
12048;SDS011;6085;49.452;8.502;2022-09-17T15:20:04;1.50;;;0.32;;
12048;SDS011;6085;49.452;8.502;2022-09-17T15:24:11;0.52;;;0.50;;
12048;SDS011;6085;49.452;8.502;2022-09-17T15:28:22;1.13;;;0.50;;
12048;SDS011;6085;49.452;8.502;2022-09-17T15:32:29;1.25;;;0.73;;
12048;SDS011;6085;49.452;8.502;2022-09-17T15:36:33;1.48;;;0.75;;
12048;SDS011;6085;49.452;8.502;2022-09-17T15:40:37;3.30;;;0.68;;
12048;SDS011;6085;49.452;8.502;2022-09-17T15:44:40;1.35;;;0.73;;
12048;SDS011;6085;49.452;8.502;2022-09-17T15:48:42;2.47;;;0.80;;
12048;SDS011;6085;49.452;8.502;2022-09-17T15:52:45;1.58;;;0.98;;
12048;SDS011;6085;49.452;8.502;2022-09-17T15:56:48;2.38;;;0.70;;
12048;SDS011;6085;49.452;8.502;2022-09-17T16:09:49;1.73;;;0.47;;
12048;SDS011;6085;49.452;8.502;2022-09-17T16:13:53;0.40;;;0.40;;
12048;SDS011;6085;49.452;8.502;2022-09-17T16:17:55;1.83;;;0.52;;
12048;SDS011;6085;49.452;8.502;2022-09-17T16:21:57;0.40;;;0.40;;
12048;SDS011;6085;49.452;8.502;2022-09-17T16:26:00;0.43;;;0.40;;
12048;SDS011;6085;49.452;8.502;2022-09-17T16:30:03;1.17;;;0.75;;
12048;SDS011;6085;49.452;8.502;2022-09-17T16:34:08;1.63;;;0.60;;
12048;SDS011;6085;49.452;8.502;2022-09-17T16:38:10;3.30;;;0.47;;
12048;SDS011;6085;49.452;8.502;2022-09-17T16:42:13;1.25;;;0.57;;
12048;SDS011;6085;49.452;8.502;2022-09-17T16:46:15;0.40;;;0.40;;
12048;SDS011;6085;49.452;8.502;2022-09-17T16:50:17;1.65;;;0.60;;
12048;SDS011;6085;49.452;8.502;2022-09-17T16:54:19;0.75;;;0.60;;
12048;SDS011;6085;49.452;8.502;2022-09-17T16:58:22;2.00;;;0.70;;
12048;SDS011;6085;49.452;8.502;2022-09-17T17:02:24;1.40;;;0.80;;
12048;SDS011;6085;49.452;8.502;2022-09-17T17:06:27;2.28;;;1.17;;
12048;SDS011;6085;49.452;8.502;2022-09-17T17:10:29;1.38;;;0.98;;
12048;SDS011;6085;49.452;8.502;2022-09-17T17:14:33;1.45;;;0.75;;
12048;SDS011;6085;49.452;8.502;2022-09-17T17:18:34;0.85;;;0.60;;
12048;SDS011;6085;49.452;8.502;2022-09-17T17:22:36;2.17;;;0.80;;
12048;SDS011;6085;49.452;8.502;2022-09-17T17:26:39;0.63;;;0.63;;
12048;SDS011;6085;49.452;8.502;2022-09-17T17:30:43;2.95;;;1.08;;
12048;SDS011;6085;49.452;8.502;2022-09-17T17:34:47;1.10;;;1.00;;
12048;SDS011;6085;49.452;8.502;2022-09-17T17:38:49;2.00;;;1.23;;
12048;SDS011;6085;49.452;8.502;2022-09-17T17:42:55;1.38;;;1.30;;
12048;SDS011;6085;49.452;8.502;2022-09-17T17:46:59;1.67;;;1.10;;
12048;SDS011;6085;49.452;8.502;2022-09-17T17:51:01;2.55;;;1.10;;
12048;SDS011;6085;49.452;8.502;2022-09-17T17:55:04;1.80;;;1.00;;
12048;SDS011;6085;49.452;8.502;2022-09-17T17:59:06;1.77;;;1.20;;
12048;SDS011;6085;49.452;8.502;2022-09-17T18:03:09;2.60;;;1.70;;
12048;SDS011;6085;49.452;8.502;2022-09-17T18:07:11;2.97;;;1.10;;
12048;SDS011;6085;49.452;8.502;2022-09-17T18:11:13;1.30;;;1.13;;
12048;SDS011;6085;49.452;8.502;2022-09-17T18:15:15;1.48;;;1.10;;
12048;SDS011;6085;49.452;8.502;2022-09-17T18:19:18;1.75;;;0.85;;
12048;SDS011;6085;49.452;8.502;2022-09-17T18:23:20;1.35;;;1.13;;
12048;SDS011;6085;49.452;8.502;2022-09-17T18:27:22;2.08;;;1.58;;
12048;SDS011;6085;49.452;8.502;2022-09-17T18:31:25;1.00;;;0.90;;
12048;SDS011;6085;49.452;8.502;2022-09-17T18:35:34;2.03;;;1.10;;
12048;SDS011;6085;49.452;8.502;2022-09-17T18:39:36;0.77;;;0.77;;
12048;SDS011;6085;49.452;8.502;2022-09-17T18:43:39;0.90;;;0.80;;
12048;SDS011;6085;49.452;8.502;2022-09-17T18:47:41;1.20;;;0.80;;
12048;SDS011;6085;49.452;8.502;2022-09-17T18:51:45;1.17;;;1.02;;
12048;SDS011;6085;49.452;8.502;2022-09-17T18:55:46;2.13;;;1.10;;
12048;SDS011;6085;49.452;8.502;2022-09-17T18:59:48;1.30;;;0.90;;
12048;SDS011;6085;49.452;8.502;2022-09-17T19:03:51;0.85;;;0.80;;
12048;SDS011;6085;49.452;8.502;2022-09-17T19:07:55;1.10;;;0.82;;
12048;SDS011;6085;49.452;8.502;2022-09-17T19:11:57;2.45;;;1.00;;
12048;SDS011;6085;49.452;8.502;2022-09-17T19:15:59;1.23;;;0.75;;
12048;SDS011;6085;49.452;8.502;2022-09-17T19:20:02;1.55;;;0.70;;
12048;SDS011;6085;49.452;8.502;2022-09-17T19:24:06;1.27;;;0.77;;
12048;SDS011;6085;49.452;8.502;2022-09-17T19:28:08;1.95;;;0.95;;
12048;SDS011;6085;49.452;8.502;2022-09-17T19:32:09;3.33;;;1.02;;
12048;SDS011;6085;49.452;8.502;2022-09-17T19:36:12;2.28;;;0.85;;
12048;SDS011;6085;49.452;8.502;2022-09-17T19:40:17;2.15;;;1.00;;
12048;SDS011;6085;49.452;8.502;2022-09-17T19:44:19;1.17;;;0.60;;
12048;SDS011;6085;49.452;8.502;2022-09-17T19:48:22;1.50;;;0.68;;
12048;SDS011;6085;49.452;8.502;2022-09-17T19:52:24;1.80;;;0.90;;
12048;SDS011;6085;49.452;8.502;2022-09-17T19:56:27;2.30;;;0.93;;
12048;SDS011;6085;49.452;8.502;2022-09-17T20:00:29;2.25;;;1.23;;
12048;SDS011;6085;49.452;8.502;2022-09-17T20:04:31;1.00;;;1.00;;
12048;SDS011;6085;49.452;8.502;2022-09-17T20:08:33;0.82;;;0.82;;
12048;SDS011;6085;49.452;8.502;2022-09-17T20:12:36;4.00;;;0.90;;
12048;SDS011;6085;49.452;8.502;2022-09-17T20:16:38;1.52;;;0.98;;
12048;SDS011;6085;49.452;8.502;2022-09-17T20:20:41;2.47;;;1.15;;
12048;SDS011;6085;49.452;8.502;2022-09-17T20:24:43;0.85;;;0.82;;
12048;SDS011;6085;49.452;8.502;2022-09-17T20:28:46;0.70;;;0.70;;
12048;SDS011;6085;49.452;8.502;2022-09-17T20:32:49;1.52;;;1.00;;
12048;SDS011;6085;49.452;8.502;2022-09-17T20:36:51;2.72;;;0.90;;
12048;SDS011;6085;49.452;8.502;2022-09-17T20:40:53;2.97;;;0.80;;
12048;SDS011;6085;49.452;8.502;2022-09-17T20:45:02;3.47;;;1.13;;
12048;SDS011;6085;49.452;8.502;2022-09-17T20:49:04;1.58;;;0.82;;
12048;SDS011;6085;49.452;8.502;2022-09-17T20:53:06;1.35;;;0.73;;
12048;SDS011;6085;49.452;8.502;2022-09-17T20:57:07;1.85;;;1.00;;
12048;SDS011;6085;49.452;8.502;2022-09-17T21:01:11;3.42;;;0.90;;
12048;SDS011;6085;49.452;8.502;2022-09-17T21:05:17;3.35;;;1.42;;
12048;SDS011;6085;49.452;8.502;2022-09-17T21:09:19;3.10;;;1.50;;
12048;SDS011;6085;49.452;8.502;2022-09-17T21:13:21;2.30;;;1.08;;
12048;SDS011;6085;49.452;8.502;2022-09-17T21:17:24;0.85;;;0.77;;
12048;SDS011;6085;49.452;8.502;2022-09-17T21:21:27;1.92;;;0.95;;
12048;SDS011;6085;49.452;8.502;2022-09-17T21:25:29;2.33;;;0.90;;
12048;SDS011;6085;49.452;8.502;2022-09-17T21:29:31;1.35;;;0.85;;
12048;SDS011;6085;49.452;8.502;2022-09-17T21:33:34;3.55;;;1.00;;
12048;SDS011;6085;49.452;8.502;2022-09-17T21:37:36;2.45;;;1.30;;
12048;SDS011;6085;49.452;8.502;2022-09-17T21:41:38;1.10;;;1.00;;
12048;SDS011;6085;49.452;8.502;2022-09-17T21:45:40;2.15;;;1.17;;
12048;SDS011;6085;49.452;8.502;2022-09-17T21:49:43;2.70;;;1.40;;
12048;SDS011;6085;49.452;8.502;2022-09-17T21:53:48;3.08;;;1.20;;
12048;SDS011;6085;49.452;8.502;2022-09-17T21:57:51;1.65;;;1.08;;
12048;SDS011;6085;49.452;8.502;2022-09-17T22:01:55;2.08;;;1.30;;
12048;SDS011;6085;49.452;8.502;2022-09-17T22:06:01;2.08;;;1.17;;
12048;SDS011;6085;49.452;8.502;2022-09-17T22:10:04;2.03;;;0.95;;
12048;SDS011;6085;49.452;8.502;2022-09-17T22:14:08;3.25;;;1.10;;
12048;SDS011;6085;49.452;8.502;2022-09-17T22:18:14;1.92;;;1.25;;
12048;SDS011;6085;49.452;8.502;2022-09-17T22:22:17;1.60;;;1.08;;
12048;SDS011;6085;49.452;8.502;2022-09-17T22:26:20;1.20;;;1.10;;
12048;SDS011;6085;49.452;8.502;2022-09-17T22:30:23;2.60;;;1.27;;
12048;SDS011;6085;49.452;8.502;2022-09-17T22:34:25;2.67;;;0.90;;
12048;SDS011;6085;49.452;8.502;2022-09-17T22:38:30;2.83;;;1.75;;
12048;SDS011;6085;49.452;8.502;2022-09-17T22:42:32;2.38;;;1.20;;
12048;SDS011;6085;49.452;8.502;2022-09-17T22:46:34;2.95;;;1.17;;
12048;SDS011;6085;49.452;8.502;2022-09-17T22:50:38;2.92;;;1.30;;
12048;SDS011;6085;49.452;8.502;2022-09-17T22:54:41;1.02;;;0.82;;
12048;SDS011;6085;49.452;8.502;2022-09-17T22:58:43;2.40;;;1.30;;
12048;SDS011;6085;49.452;8.502;2022-09-17T23:02:45;3.38;;;1.13;;
12048;SDS011;6085;49.452;8.502;2022-09-17T23:06:47;4.80;;;1.50;;
12048;SDS011;6085;49.452;8.502;2022-09-17T23:10:50;3.17;;;1.40;;
12048;SDS011;6085;49.452;8.502;2022-09-17T23:14:52;3.65;;;1.45;;
12048;SDS011;6085;49.452;8.502;2022-09-17T23:18:54;6.40;;;1.50;;
12048;SDS011;6085;49.452;8.502;2022-09-17T23:22:57;2.33;;;1.23;;
12048;SDS011;6085;49.452;8.502;2022-09-17T23:27:00;4.78;;;1.25;;
12048;SDS011;6085;49.452;8.502;2022-09-17T23:31:05;1.25;;;1.15;;
12048;SDS011;6085;49.452;8.502;2022-09-17T23:35:07;5.65;;;1.35;;
12048;SDS011;6085;49.452;8.502;2022-09-17T23:39:10;3.13;;;1.20;;
12048;SDS011;6085;49.452;8.502;2022-09-17T23:43:13;2.88;;;1.52;;
12048;SDS011;6085;49.452;8.502;2022-09-17T23:47:15;2.92;;;1.63;;
12048;SDS011;6085;49.452;8.502;2022-09-17T23:51:17;2.50;;;1.33;;
12048;SDS011;6085;49.452;8.502;2022-09-17T23:55:19;3.92;;;0.98;;
12048;SDS011;6085;49.452;8.502;2022-09-17T23:59:22;4.30;;;1.23;;
